sensor_id;sensor_type;location;lat;lon;timestamp;P1;durP1;ratioP1;P2;durP2;ratioP2
14474;SDS011;7323;50.848;4.334;2023-09-08T00:00:59;12.20;;;8.63;;
14474;SDS011;7323;50.848;4.334;2023-09-08T00:03:25;14.17;;;8.73;;
14474;SDS011;7323;50.848;4.334;2023-09-08T00:05:51;11.27;;;8.63;;
14474;SDS011;7323;50.848;4.334;2023-09-08T00:08:17;10.10;;;9.10;;
14474;SDS011;7323;50.848;4.334;2023-09-08T00:10:43;11.40;;;8.53;;
14474;SDS011;7323;50.848;4.334;2023-09-08T00:13:09;11.70;;;8.83;;
14474;SDS011;7323;50.848;4.334;2023-09-08T00:15:34;13.03;;;8.67;;
14474;SDS011;7323;50.848;4.334;2023-09-08T00:18:00;12.50;;;8.73;;
14474;SDS011;7323;50.848;4.334;2023-09-08T00:20:26;14.60;;;8.70;;
14474;SDS011;7323;50.848;4.334;2023-09-08T00:22:52;12.37;;;8.40;;
14474;SDS011;7323;50.848;4.334;2023-09-08T00:25:20;11.27;;;8.20;;
14474;SDS011;7323;50.848;4.334;2023-09-08T00:27:45;13.17;;;7.83;;
14474;SDS011;7323;50.848;4.334;2023-09-08T00:30:11;11.87;;;7.87;;
14474;SDS011;7323;50.848;4.334;2023-09-08T00:32:37;12.00;;;8.10;;
14474;SDS011;7323;50.848;4.334;2023-09-08T00:35:05;10.77;;;8.77;;
14474;SDS011;7323;50.848;4.334;2023-09-08T00:37:32;9.20;;;7.37;;
14474;SDS011;7323;50.848;4.334;2023-09-08T00:39:58;10.37;;;7.60;;
14474;SDS011;7323;50.848;4.334;2023-09-08T00:42:23;14.30;;;7.63;;
14474;SDS011;7323;50.848;4.334;2023-09-08T00:44:50;10.87;;;7.53;;
14474;SDS011;7323;50.848;4.334;2023-09-08T00:47:19;11.83;;;7.53;;
14474;SDS011;7323;50.848;4.334;2023-09-08T00:49:45;11.43;;;7.23;;
14474;SDS011;7323;50.848;4.334;2023-09-08T00:52:11;8.30;;;7.40;;
14474;SDS011;7323;50.848;4.334;2023-09-08T00:54:37;11.63;;;7.27;;
14474;SDS011;7323;50.848;4.334;2023-09-08T00:57:03;8.43;;;6.70;;
14474;SDS011;7323;50.848;4.334;2023-09-08T00:59:30;10.07;;;6.73;;
14474;SDS011;7323;50.848;4.334;2023-09-08T01:01:57;13.67;;;7.27;;
14474;SDS011;7323;50.848;4.334;2023-09-08T01:04:23;10.03;;;6.73;;
14474;SDS011;7323;50.848;4.334;2023-09-08T01:06:49;8.27;;;6.50;;
14474;SDS011;7323;50.848;4.334;2023-09-08T01:09:16;7.97;;;6.63;;
14474;SDS011;7323;50.848;4.334;2023-09-08T01:11:46;8.17;;;6.73;;
14474;SDS011;7323;50.848;4.334;2023-09-08T01:14:12;8.23;;;7.27;;
14474;SDS011;7323;50.848;4.334;2023-09-08T01:16:39;10.80;;;7.57;;
14474;SDS011;7323;50.848;4.334;2023-09-08T01:19:10;10.27;;;7.33;;
14474;SDS011;7323;50.848;4.334;2023-09-08T01:27:35;8.60;;;6.93;;
14474;SDS011;7323;50.848;4.334;2023-09-08T01:30:03;10.37;;;7.87;;
14474;SDS011;7323;50.848;4.334;2023-09-08T01:32:30;9.07;;;7.30;;
14474;SDS011;7323;50.848;4.334;2023-09-08T01:34:58;10.60;;;6.57;;
14474;SDS011;7323;50.848;4.334;2023-09-08T01:37:24;8.20;;;7.30;;
14474;SDS011;7323;50.848;4.334;2023-09-08T01:39:51;8.47;;;6.67;;
14474;SDS011;7323;50.848;4.334;2023-09-08T01:42:16;9.57;;;7.60;;
14474;SDS011;7323;50.848;4.334;2023-09-08T01:44:42;8.80;;;7.67;;
14474;SDS011;7323;50.848;4.334;2023-09-08T01:47:08;8.37;;;6.60;;
14474;SDS011;7323;50.848;4.334;2023-09-08T01:49:33;12.60;;;8.73;;
14474;SDS011;7323;50.848;4.334;2023-09-08T01:51:59;11.53;;;8.40;;
14474;SDS011;7323;50.848;4.334;2023-09-08T01:54:25;12.83;;;10.00;;
14474;SDS011;7323;50.848;4.334;2023-09-08T01:56:50;10.57;;;7.50;;
14474;SDS011;7323;50.848;4.334;2023-09-08T01:59:16;8.23;;;6.63;;
14474;SDS011;7323;50.848;4.334;2023-09-08T02:01:42;7.23;;;6.50;;
14474;SDS011;7323;50.848;4.334;2023-09-08T02:04:08;9.20;;;7.23;;
14474;SDS011;7323;50.848;4.334;2023-09-08T02:06:34;9.40;;;7.83;;
14474;SDS011;7323;50.848;4.334;2023-09-08T02:09:00;9.60;;;7.57;;
14474;SDS011;7323;50.848;4.334;2023-09-08T02:11:26;8.23;;;7.33;;
14474;SDS011;7323;50.848;4.334;2023-09-08T02:13:53;8.73;;;7.10;;
14474;SDS011;7323;50.848;4.334;2023-09-08T02:16:19;7.77;;;6.90;;
14474;SDS011;7323;50.848;4.334;2023-09-08T02:18:45;10.03;;;7.57;;
14474;SDS011;7323;50.848;4.334;2023-09-08T02:21:10;10.07;;;6.97;;
14474;SDS011;7323;50.848;4.334;2023-09-08T02:23:36;9.47;;;7.50;;
14474;SDS011;7323;50.848;4.334;2023-09-08T02:26:02;11.87;;;7.80;;
14474;SDS011;7323;50.848;4.334;2023-09-08T02:28:28;9.70;;;7.50;;
14474;SDS011;7323;50.848;4.334;2023-09-08T02:30:54;11.27;;;8.07;;
14474;SDS011;7323;50.848;4.334;2023-09-08T02:33:20;11.43;;;7.60;;
14474;SDS011;7323;50.848;4.334;2023-09-08T02:35:46;10.73;;;7.77;;
14474;SDS011;7323;50.848;4.334;2023-09-08T02:38:12;10.93;;;7.67;;
14474;SDS011;7323;50.848;4.334;2023-09-08T02:40:37;10.80;;;7.30;;
14474;SDS011;7323;50.848;4.334;2023-09-08T02:43:03;11.97;;;7.87;;
14474;SDS011;7323;50.848;4.334;2023-09-08T02:45:29;12.87;;;8.30;;
14474;SDS011;7323;50.848;4.334;2023-09-08T02:47:55;14.33;;;8.50;;
14474;SDS011;7323;50.848;4.334;2023-09-08T02:50:21;8.90;;;7.93;;
14474;SDS011;7323;50.848;4.334;2023-09-08T02:52:47;12.60;;;8.03;;
14474;SDS011;7323;50.848;4.334;2023-09-08T02:55:13;14.30;;;8.90;;
14474;SDS011;7323;50.848;4.334;2023-09-08T02:57:39;10.20;;;7.90;;
14474;SDS011;7323;50.848;4.334;2023-09-08T03:00:05;10.73;;;7.97;;
14474;SDS011;7323;50.848;4.334;2023-09-08T03:02:32;11.97;;;8.00;;
14474;SDS011;7323;50.848;4.334;2023-09-08T03:04:58;12.93;;;8.03;;
14474;SDS011;7323;50.848;4.334;2023-09-08T03:07:25;12.40;;;7.83;;
14474;SDS011;7323;50.848;4.334;2023-09-08T03:09:51;12.43;;;7.83;;
14474;SDS011;7323;50.848;4.334;2023-09-08T03:12:17;13.63;;;8.73;;
14474;SDS011;7323;50.848;4.334;2023-09-08T03:14:42;13.10;;;8.23;;
14474;SDS011;7323;50.848;4.334;2023-09-08T03:17:08;10.80;;;8.40;;
14474;SDS011;7323;50.848;4.334;2023-09-08T03:19:34;10.53;;;7.57;;
14474;SDS011;7323;50.848;4.334;2023-09-08T03:22:00;11.33;;;8.50;;
14474;SDS011;7323;50.848;4.334;2023-09-08T03:24:25;10.63;;;7.97;;
14474;SDS011;7323;50.848;4.334;2023-09-08T03:26:51;9.67;;;8.30;;
14474;SDS011;7323;50.848;4.334;2023-09-08T03:29:17;12.73;;;8.27;;
14474;SDS011;7323;50.848;4.334;2023-09-08T03:31:42;10.03;;;8.27;;
14474;SDS011;7323;50.848;4.334;2023-09-08T03:34:08;11.50;;;8.20;;
14474;SDS011;7323;50.848;4.334;2023-09-08T03:36:34;12.37;;;7.43;;
14474;SDS011;7323;50.848;4.334;2023-09-08T03:39:01;11.80;;;8.07;;
14474;SDS011;7323;50.848;4.334;2023-09-08T03:41:27;14.13;;;7.83;;
14474;SDS011;7323;50.848;4.334;2023-09-08T03:43:53;11.23;;;7.63;;
14474;SDS011;7323;50.848;4.334;2023-09-08T03:46:19;15.10;;;7.83;;
14474;SDS011;7323;50.848;4.334;2023-09-08T03:48:44;13.40;;;8.60;;
14474;SDS011;7323;50.848;4.334;2023-09-08T03:51:10;11.53;;;8.53;;
14474;SDS011;7323;50.848;4.334;2023-09-08T03:53:36;11.63;;;8.87;;
14474;SDS011;7323;50.848;4.334;2023-09-08T03:56:01;10.43;;;7.90;;
14474;SDS011;7323;50.848;4.334;2023-09-08T03:58:27;10.27;;;8.87;;
14474;SDS011;7323;50.848;4.334;2023-09-08T04:00:54;12.63;;;7.93;;
14474;SDS011;7323;50.848;4.334;2023-09-08T04:03:20;9.70;;;8.07;;
14474;SDS011;7323;50.848;4.334;2023-09-08T04:05:45;13.00;;;7.80;;
14474;SDS011;7323;50.848;4.334;2023-09-08T04:08:11;11.50;;;8.10;;
14474;SDS011;7323;50.848;4.334;2023-09-08T04:10:37;9.73;;;8.17;;
14474;SDS011;7323;50.848;4.334;2023-09-08T04:13:03;11.60;;;8.93;;
14474;SDS011;7323;50.848;4.334;2023-09-08T04:15:29;11.47;;;8.13;;
14474;SDS011;7323;50.848;4.334;2023-09-08T04:17:55;9.83;;;8.23;;
14474;SDS011;7323;50.848;4.334;2023-09-08T04:20:22;10.50;;;8.13;;
14474;SDS011;7323;50.848;4.334;2023-09-08T04:22:48;8.90;;;8.07;;
14474;SDS011;7323;50.848;4.334;2023-09-08T04:25:13;12.03;;;8.50;;
14474;SDS011;7323;50.848;4.334;2023-09-08T04:27:39;11.93;;;8.43;;
14474;SDS011;7323;50.848;4.334;2023-09-08T04:30:06;10.33;;;8.00;;
14474;SDS011;7323;50.848;4.334;2023-09-08T04:32:33;10.47;;;8.43;;
14474;SDS011;7323;50.848;4.334;2023-09-08T04:34:59;9.73;;;8.00;;
14474;SDS011;7323;50.848;4.334;2023-09-08T04:37:25;12.60;;;8.47;;
14474;SDS011;7323;50.848;4.334;2023-09-08T04:39:50;12.00;;;8.53;;
14474;SDS011;7323;50.848;4.334;2023-09-08T04:42:16;11.83;;;7.90;;
14474;SDS011;7323;50.848;4.334;2023-09-08T04:44:42;12.57;;;8.73;;
14474;SDS011;7323;50.848;4.334;2023-09-08T04:47:07;10.67;;;7.97;;
14474;SDS011;7323;50.848;4.334;2023-09-08T04:49:33;9.90;;;7.87;;
14474;SDS011;7323;50.848;4.334;2023-09-08T04:51:59;11.70;;;8.30;;
14474;SDS011;7323;50.848;4.334;2023-09-08T04:54:25;10.37;;;8.10;;
14474;SDS011;7323;50.848;4.334;2023-09-08T04:56:52;12.80;;;8.53;;
14474;SDS011;7323;50.848;4.334;2023-09-08T04:59:19;13.47;;;8.73;;
14474;SDS011;7323;50.848;4.334;2023-09-08T05:01:46;11.67;;;8.83;;
14474;SDS011;7323;50.848;4.334;2023-09-08T05:04:12;10.93;;;9.00;;
14474;SDS011;7323;50.848;4.334;2023-09-08T05:06:40;14.97;;;9.10;;
14474;SDS011;7323;50.848;4.334;2023-09-08T05:09:05;11.57;;;8.17;;
14474;SDS011;7323;50.848;4.334;2023-09-08T05:11:33;11.03;;;8.83;;
14474;SDS011;7323;50.848;4.334;2023-09-08T05:13:59;17.40;;;9.17;;
14474;SDS011;7323;50.848;4.334;2023-09-08T05:16:25;11.63;;;9.53;;
14474;SDS011;7323;50.848;4.334;2023-09-08T05:19:02;16.30;;;9.10;;
14474;SDS011;7323;50.848;4.334;2023-09-08T05:21:28;14.20;;;8.70;;
14474;SDS011;7323;50.848;4.334;2023-09-08T05:23:56;11.23;;;8.37;;
14474;SDS011;7323;50.848;4.334;2023-09-08T05:26:21;12.20;;;9.07;;
14474;SDS011;7323;50.848;4.334;2023-09-08T05:28:47;15.87;;;8.80;;
14474;SDS011;7323;50.848;4.334;2023-09-08T05:31:13;11.73;;;8.67;;
14474;SDS011;7323;50.848;4.334;2023-09-08T05:33:39;17.10;;;9.40;;
14474;SDS011;7323;50.848;4.334;2023-09-08T05:36:05;11.63;;;8.53;;
14474;SDS011;7323;50.848;4.334;2023-09-08T05:38:32;14.73;;;9.03;;
14474;SDS011;7323;50.848;4.334;2023-09-08T05:41:06;13.07;;;8.10;;
14474;SDS011;7323;50.848;4.334;2023-09-08T05:43:34;16.50;;;8.37;;
14474;SDS011;7323;50.848;4.334;2023-09-08T05:46:00;17.63;;;9.00;;
14474;SDS011;7323;50.848;4.334;2023-09-08T05:48:26;16.17;;;8.87;;
14474;SDS011;7323;50.848;4.334;2023-09-08T05:50:51;11.27;;;8.70;;
14474;SDS011;7323;50.848;4.334;2023-09-08T05:53:17;12.93;;;8.23;;
14474;SDS011;7323;50.848;4.334;2023-09-08T05:55:45;19.27;;;9.37;;
14474;SDS011;7323;50.848;4.334;2023-09-08T05:58:13;14.97;;;8.77;;
14474;SDS011;7323;50.848;4.334;2023-09-08T06:00:38;11.03;;;8.50;;
14474;SDS011;7323;50.848;4.334;2023-09-08T06:03:04;17.30;;;9.50;;
14474;SDS011;7323;50.848;4.334;2023-09-08T06:05:31;21.37;;;9.47;;
14474;SDS011;7323;50.848;4.334;2023-09-08T06:07:57;13.23;;;8.70;;
14474;SDS011;7323;50.848;4.334;2023-09-08T06:10:22;14.70;;;8.97;;
14474;SDS011;7323;50.848;4.334;2023-09-08T06:12:48;15.07;;;9.47;;
14474;SDS011;7323;50.848;4.334;2023-09-08T06:15:16;16.50;;;10.07;;
14474;SDS011;7323;50.848;4.334;2023-09-08T06:17:42;15.20;;;9.33;;
14474;SDS011;7323;50.848;4.334;2023-09-08T06:20:08;13.00;;;9.07;;
14474;SDS011;7323;50.848;4.334;2023-09-08T06:22:34;11.20;;;9.30;;
14474;SDS011;7323;50.848;4.334;2023-09-08T06:25:00;15.80;;;8.70;;
14474;SDS011;7323;50.848;4.334;2023-09-08T06:27:26;15.57;;;9.40;;
14474;SDS011;7323;50.848;4.334;2023-09-08T06:29:52;14.77;;;9.47;;
14474;SDS011;7323;50.848;4.334;2023-09-08T06:32:18;13.43;;;9.60;;
14474;SDS011;7323;50.848;4.334;2023-09-08T06:34:44;16.73;;;8.63;;
14474;SDS011;7323;50.848;4.334;2023-09-08T06:37:10;16.53;;;9.30;;
14474;SDS011;7323;50.848;4.334;2023-09-08T06:39:36;14.97;;;8.93;;
14474;SDS011;7323;50.848;4.334;2023-09-08T06:42:01;11.60;;;9.20;;
14474;SDS011;7323;50.848;4.334;2023-09-08T06:44:28;16.63;;;9.23;;
14474;SDS011;7323;50.848;4.334;2023-09-08T06:46:53;16.70;;;10.20;;
14474;SDS011;7323;50.848;4.334;2023-09-08T06:49:19;15.67;;;9.70;;
14474;SDS011;7323;50.848;4.334;2023-09-08T06:51:45;14.37;;;9.47;;
14474;SDS011;7323;50.848;4.334;2023-09-08T06:54:13;14.33;;;10.37;;
14474;SDS011;7323;50.848;4.334;2023-09-08T06:56:39;14.37;;;9.57;;
14474;SDS011;7323;50.848;4.334;2023-09-08T06:59:05;14.63;;;9.50;;
14474;SDS011;7323;50.848;4.334;2023-09-08T07:01:31;13.90;;;9.27;;
14474;SDS011;7323;50.848;4.334;2023-09-08T07:03:56;15.90;;;10.03;;
14474;SDS011;7323;50.848;4.334;2023-09-08T07:06:22;14.87;;;8.90;;
14474;SDS011;7323;50.848;4.334;2023-09-08T07:08:48;15.90;;;10.00;;
14474;SDS011;7323;50.848;4.334;2023-09-08T07:11:17;13.53;;;9.70;;
14474;SDS011;7323;50.848;4.334;2023-09-08T07:13:43;18.30;;;9.93;;
14474;SDS011;7323;50.848;4.334;2023-09-08T07:16:10;14.00;;;8.90;;
14474;SDS011;7323;50.848;4.334;2023-09-08T07:18:36;11.43;;;9.23;;
14474;SDS011;7323;50.848;4.334;2023-09-08T07:21:03;12.70;;;8.33;;
14474;SDS011;7323;50.848;4.334;2023-09-08T07:23:29;11.93;;;8.37;;
14474;SDS011;7323;50.848;4.334;2023-09-08T07:25:55;16.20;;;8.07;;
14474;SDS011;7323;50.848;4.334;2023-09-08T07:28:21;12.90;;;7.77;;
14474;SDS011;7323;50.848;4.334;2023-09-08T07:30:47;15.20;;;8.67;;
14474;SDS011;7323;50.848;4.334;2023-09-08T07:33:12;13.40;;;8.20;;
14474;SDS011;7323;50.848;4.334;2023-09-08T07:35:38;13.93;;;8.20;;
14474;SDS011;7323;50.848;4.334;2023-09-08T07:38:05;16.23;;;7.60;;
14474;SDS011;7323;50.848;4.334;2023-09-08T07:40:32;12.20;;;8.50;;
14474;SDS011;7323;50.848;4.334;2023-09-08T07:42:58;11.80;;;8.50;;
14474;SDS011;7323;50.848;4.334;2023-09-08T07:45:24;17.00;;;9.03;;
14474;SDS011;7323;50.848;4.334;2023-09-08T07:47:50;13.97;;;8.03;;
14474;SDS011;7323;50.848;4.334;2023-09-08T07:50:20;15.83;;;8.27;;
14474;SDS011;7323;50.848;4.334;2023-09-08T07:52:50;12.10;;;7.67;;
14474;SDS011;7323;50.848;4.334;2023-09-08T07:55:17;13.60;;;8.13;;
14474;SDS011;7323;50.848;4.334;2023-09-08T07:57:44;15.37;;;8.43;;
14474;SDS011;7323;50.848;4.334;2023-09-08T08:00:11;12.73;;;7.87;;
14474;SDS011;7323;50.848;4.334;2023-09-08T08:02:42;11.50;;;7.97;;
14474;SDS011;7323;50.848;4.334;2023-09-08T08:05:10;13.80;;;7.80;;
14474;SDS011;7323;50.848;4.334;2023-09-08T08:07:37;12.23;;;8.20;;
14474;SDS011;7323;50.848;4.334;2023-09-08T08:10:03;13.93;;;8.03;;
14474;SDS011;7323;50.848;4.334;2023-09-08T08:12:31;12.17;;;7.33;;
14474;SDS011;7323;50.848;4.334;2023-09-08T08:14:58;13.07;;;8.43;;
14474;SDS011;7323;50.848;4.334;2023-09-08T08:17:24;16.37;;;7.83;;
14474;SDS011;7323;50.848;4.334;2023-09-08T08:19:51;12.37;;;7.67;;
14474;SDS011;7323;50.848;4.334;2023-09-08T08:22:17;13.43;;;8.25;;
14474;SDS011;7323;50.848;4.334;2023-09-08T08:24:43;14.97;;;8.10;;
14474;SDS011;7323;50.848;4.334;2023-09-08T08:27:09;13.73;;;7.68;;
14474;SDS011;7323;50.848;4.334;2023-09-08T08:29:37;19.90;;;7.53;;
14474;SDS011;7323;50.848;4.334;2023-09-08T08:32:04;9.73;;;7.82;;
14474;SDS011;7323;50.848;4.334;2023-09-08T08:34:30;11.07;;;7.67;;
14474;SDS011;7323;50.848;4.334;2023-09-08T08:36:55;12.45;;;8.20;;
14474;SDS011;7323;50.848;4.334;2023-09-08T08:39:22;14.90;;;8.13;;
14474;SDS011;7323;50.848;4.334;2023-09-08T08:41:48;16.13;;;8.67;;
14474;SDS011;7323;50.848;4.334;2023-09-08T08:44:14;14.45;;;8.77;;
14474;SDS011;7323;50.848;4.334;2023-09-08T08:46:42;14.73;;;8.20;;
14474;SDS011;7323;50.848;4.334;2023-09-08T08:49:10;12.15;;;7.93;;
14474;SDS011;7323;50.848;4.334;2023-09-08T08:51:38;16.98;;;8.07;;
14474;SDS011;7323;50.848;4.334;2023-09-08T08:54:04;13.45;;;8.05;;
14474;SDS011;7323;50.848;4.334;2023-09-08T08:56:31;13.13;;;7.45;;
14474;SDS011;7323;50.848;4.334;2023-09-08T08:58:57;10.85;;;8.02;;
14474;SDS011;7323;50.848;4.334;2023-09-08T09:01:25;15.00;;;8.20;;
14474;SDS011;7323;50.848;4.334;2023-09-08T09:03:51;13.15;;;7.05;;
14474;SDS011;7323;50.848;4.334;2023-09-08T09:06:18;11.52;;;7.03;;
14474;SDS011;7323;50.848;4.334;2023-09-08T09:08:44;10.05;;;7.40;;
14474;SDS011;7323;50.848;4.334;2023-09-08T09:11:12;11.43;;;8.20;;
14474;SDS011;7323;50.848;4.334;2023-09-08T09:13:40;11.82;;;7.43;;
14474;SDS011;7323;50.848;4.334;2023-09-08T09:16:08;14.50;;;7.72;;
14474;SDS011;7323;50.848;4.334;2023-09-08T09:19:01;12.20;;;8.23;;
14474;SDS011;7323;50.848;4.334;2023-09-08T09:21:46;11.38;;;7.25;;
14474;SDS011;7323;50.848;4.334;2023-09-08T09:24:28;13.60;;;7.22;;
14474;SDS011;7323;50.848;4.334;2023-09-08T09:26:59;12.55;;;7.57;;
14474;SDS011;7323;50.848;4.334;2023-09-08T09:29:26;11.10;;;7.38;;
14474;SDS011;7323;50.848;4.334;2023-09-08T09:31:57;13.18;;;7.03;;
14474;SDS011;7323;50.848;4.334;2023-09-08T09:34:31;11.75;;;7.07;;
14474;SDS011;7323;50.848;4.334;2023-09-08T09:36:58;11.68;;;7.35;;
14474;SDS011;7323;50.848;4.334;2023-09-08T09:39:24;10.25;;;6.68;;
14474;SDS011;7323;50.848;4.334;2023-09-08T09:41:57;8.57;;;6.40;;
14474;SDS011;7323;50.848;4.334;2023-09-08T09:44:24;9.52;;;6.95;;
14474;SDS011;7323;50.848;4.334;2023-09-08T09:46:53;10.25;;;6.55;;
14474;SDS011;7323;50.848;4.334;2023-09-08T09:49:19;11.68;;;6.32;;
14474;SDS011;7323;50.848;4.334;2023-09-08T09:51:47;7.07;;;5.93;;
14474;SDS011;7323;50.848;4.334;2023-09-08T09:54:16;11.18;;;6.10;;
14474;SDS011;7323;50.848;4.334;2023-09-08T09:56:43;8.75;;;6.10;;
14474;SDS011;7323;50.848;4.334;2023-09-08T09:59:10;10.10;;;5.90;;
14474;SDS011;7323;50.848;4.334;2023-09-08T10:01:38;10.57;;;6.38;;
14474;SDS011;7323;50.848;4.334;2023-09-08T10:04:04;9.45;;;6.20;;
14474;SDS011;7323;50.848;4.334;2023-09-08T10:06:34;8.73;;;6.13;;
14474;SDS011;7323;50.848;4.334;2023-09-08T10:09:03;11.82;;;6.70;;
14474;SDS011;7323;50.848;4.334;2023-09-08T10:11:34;11.45;;;6.38;;
14474;SDS011;7323;50.848;4.334;2023-09-08T10:14:03;11.68;;;6.00;;
14474;SDS011;7323;50.848;4.334;2023-09-08T10:16:34;10.07;;;5.85;;
14474;SDS011;7323;50.848;4.334;2023-09-08T10:19:01;10.77;;;6.50;;
14474;SDS011;7323;50.848;4.334;2023-09-08T10:21:36;10.60;;;6.13;;
14474;SDS011;7323;50.848;4.334;2023-09-08T10:27:10;10.95;;;5.90;;
14474;SDS011;7323;50.848;4.334;2023-09-08T10:29:37;10.73;;;6.18;;
14474;SDS011;7323;50.848;4.334;2023-09-08T10:32:04;8.48;;;4.90;;
14474;SDS011;7323;50.848;4.334;2023-09-08T10:34:34;9.50;;;5.30;;
14474;SDS011;7323;50.848;4.334;2023-09-08T10:37:03;8.15;;;4.70;;
14474;SDS011;7323;50.848;4.334;2023-09-08T10:39:43;6.85;;;4.25;;
14474;SDS011;7323;50.848;4.334;2023-09-08T10:47:30;8.50;;;4.50;;
14474;SDS011;7323;50.848;4.334;2023-09-08T10:49:59;6.60;;;3.80;;
14474;SDS011;7323;50.848;4.334;2023-09-08T10:52:25;10.10;;;5.28;;
14474;SDS011;7323;50.848;4.334;2023-09-08T10:54:52;9.05;;;3.85;;
14474;SDS011;7323;50.848;4.334;2023-09-08T10:57:20;4.90;;;4.20;;
14474;SDS011;7323;50.848;4.334;2023-09-08T11:07:39;7.05;;;4.18;;
14474;SDS011;7323;50.848;4.334;2023-09-08T11:10:06;7.30;;;4.32;;
14474;SDS011;7323;50.848;4.334;2023-09-08T11:12:33;7.38;;;4.13;;
14474;SDS011;7323;50.848;4.334;2023-09-08T11:14:59;5.93;;;4.10;;
14474;SDS011;7323;50.848;4.334;2023-09-08T11:17:29;6.32;;;3.92;;
14474;SDS011;7323;50.848;4.334;2023-09-08T11:19:56;10.43;;;4.35;;
14474;SDS011;7323;50.848;4.334;2023-09-08T11:22:22;11.55;;;4.97;;
14474;SDS011;7323;50.848;4.334;2023-09-08T11:24:52;9.40;;;4.82;;
14474;SDS011;7323;50.848;4.334;2023-09-08T11:27:21;6.00;;;4.38;;
14474;SDS011;7323;50.848;4.334;2023-09-08T11:29:49;6.15;;;4.18;;
14474;SDS011;7323;50.848;4.334;2023-09-08T11:32:15;8.23;;;4.53;;
14474;SDS011;7323;50.848;4.334;2023-09-08T11:34:41;11.20;;;4.50;;
14474;SDS011;7323;50.848;4.334;2023-09-08T11:37:13;9.07;;;5.05;;
14474;SDS011;7323;50.848;4.334;2023-09-08T11:39:43;7.28;;;5.22;;
14474;SDS011;7323;50.848;4.334;2023-09-08T11:42:13;8.80;;;4.35;;
14474;SDS011;7323;50.848;4.334;2023-09-08T11:44:41;9.02;;;4.28;;
14474;SDS011;7323;50.848;4.334;2023-09-08T11:47:09;9.15;;;4.35;;
14474;SDS011;7323;50.848;4.334;2023-09-08T11:49:42;7.57;;;4.63;;
14474;SDS011;7323;50.848;4.334;2023-09-08T11:52:09;14.30;;;5.30;;
14474;SDS011;7323;50.848;4.334;2023-09-08T11:54:35;6.05;;;3.55;;
14474;SDS011;7323;50.848;4.334;2023-09-08T11:57:04;9.57;;;4.30;;
14474;SDS011;7323;50.848;4.334;2023-09-08T11:59:33;7.65;;;4.20;;
14474;SDS011;7323;50.848;4.334;2023-09-08T12:02:00;7.13;;;4.15;;
14474;SDS011;7323;50.848;4.334;2023-09-08T12:04:26;6.30;;;3.60;;
14474;SDS011;7323;50.848;4.334;2023-09-08T12:06:52;4.68;;;4.10;;
14474;SDS011;7323;50.848;4.334;2023-09-08T12:09:20;6.95;;;4.03;;
14474;SDS011;7323;50.848;4.334;2023-09-08T12:11:46;8.80;;;4.57;;
14474;SDS011;7323;50.848;4.334;2023-09-08T12:14:13;6.30;;;5.53;;
14474;SDS011;7323;50.848;4.334;2023-09-08T12:16:40;7.18;;;4.90;;
14474;SDS011;7323;50.848;4.334;2023-09-08T12:19:07;6.90;;;3.70;;
14474;SDS011;7323;50.848;4.334;2023-09-08T12:22:16;7.82;;;4.22;;
14474;SDS011;7323;50.848;4.334;2023-09-08T12:27:14;13.75;;;6.72;;
14474;SDS011;7323;50.848;4.334;2023-09-08T12:29:51;9.73;;;6.50;;
14474;SDS011;7323;50.848;4.334;2023-09-08T12:32:21;10.48;;;4.00;;
14474;SDS011;7323;50.848;4.334;2023-09-08T12:34:48;7.43;;;4.65;;
14474;SDS011;7323;50.848;4.334;2023-09-08T12:37:18;10.40;;;7.00;;
14474;SDS011;7323;50.848;4.334;2023-09-08T12:39:45;7.65;;;4.80;;
14474;SDS011;7323;50.848;4.334;2023-09-08T12:42:11;8.45;;;4.75;;
14474;SDS011;7323;50.848;4.334;2023-09-08T12:44:37;9.68;;;4.70;;
14474;SDS011;7323;50.848;4.334;2023-09-08T12:47:03;8.55;;;4.45;;
14474;SDS011;7323;50.848;4.334;2023-09-08T12:49:29;8.50;;;6.15;;
14474;SDS011;7323;50.848;4.334;2023-09-08T12:51:55;8.15;;;4.82;;
14474;SDS011;7323;50.848;4.334;2023-09-08T12:54:20;6.20;;;4.00;;
14474;SDS011;7323;50.848;4.334;2023-09-08T12:56:46;5.50;;;4.03;;
14474;SDS011;7323;50.848;4.334;2023-09-08T12:59:12;10.75;;;3.92;;
14474;SDS011;7323;50.848;4.334;2023-09-08T13:01:39;7.90;;;3.67;;
14474;SDS011;7323;50.848;4.334;2023-09-08T13:04:08;9.82;;;4.43;;
14474;SDS011;7323;50.848;4.334;2023-09-08T13:06:35;9.23;;;3.70;;
14474;SDS011;7323;50.848;4.334;2023-09-08T13:09:01;8.57;;;4.28;;
14474;SDS011;7323;50.848;4.334;2023-09-08T13:11:26;8.75;;;3.95;;
14474;SDS011;7323;50.848;4.334;2023-09-08T13:19:38;9.88;;;4.28;;
14474;SDS011;7323;50.848;4.334;2023-09-08T13:22:05;7.47;;;3.97;;
14474;SDS011;7323;50.848;4.334;2023-09-08T13:24:33;11.60;;;4.45;;
14474;SDS011;7323;50.848;4.334;2023-09-08T13:27:02;8.90;;;4.47;;
14474;SDS011;7323;50.848;4.334;2023-09-08T13:32:03;10.88;;;4.20;;
14474;SDS011;7323;50.848;4.334;2023-09-08T13:37:24;10.60;;;4.13;;
14474;SDS011;7323;50.848;4.334;2023-09-08T13:39:51;11.93;;;4.40;;
14474;SDS011;7323;50.848;4.334;2023-09-08T13:42:23;10.68;;;3.90;;
14474;SDS011;7323;50.848;4.334;2023-09-08T13:44:49;11.73;;;4.22;;
14474;SDS011;7323;50.848;4.334;2023-09-08T13:47:15;13.00;;;4.18;;
14474;SDS011;7323;50.848;4.334;2023-09-08T13:49:42;9.05;;;4.13;;
14474;SDS011;7323;50.848;4.334;2023-09-08T13:52:07;10.13;;;4.15;;
14474;SDS011;7323;50.848;4.334;2023-09-08T13:54:35;12.50;;;4.55;;
14474;SDS011;7323;50.848;4.334;2023-09-08T13:57:02;17.30;;;4.30;;
14474;SDS011;7323;50.848;4.334;2023-09-08T13:59:29;12.77;;;4.45;;
14474;SDS011;7323;50.848;4.334;2023-09-08T14:01:55;12.93;;;4.53;;
14474;SDS011;7323;50.848;4.334;2023-09-08T14:04:23;9.90;;;4.22;;
14474;SDS011;7323;50.848;4.334;2023-09-08T14:06:49;13.73;;;4.75;;
14474;SDS011;7323;50.848;4.334;2023-09-08T14:09:15;11.57;;;4.75;;
14474;SDS011;7323;50.848;4.334;2023-09-08T14:11:43;14.05;;;4.40;;
14474;SDS011;7323;50.848;4.334;2023-09-08T14:14:09;12.75;;;4.85;;
14474;SDS011;7323;50.848;4.334;2023-09-08T14:16:35;13.15;;;4.97;;
14474;SDS011;7323;50.848;4.334;2023-09-08T14:19:01;16.73;;;5.68;;
14474;SDS011;7323;50.848;4.334;2023-09-08T14:21:27;15.07;;;6.63;;
14474;SDS011;7323;50.848;4.334;2023-09-08T14:23:53;11.57;;;4.80;;
14474;SDS011;7323;50.848;4.334;2023-09-08T14:26:19;16.70;;;4.78;;
14474;SDS011;7323;50.848;4.334;2023-09-08T14:28:47;11.85;;;4.72;;
14474;SDS011;7323;50.848;4.334;2023-09-08T14:31:13;11.65;;;4.72;;
14474;SDS011;7323;50.848;4.334;2023-09-08T14:33:38;15.13;;;4.75;;
14474;SDS011;7323;50.848;4.334;2023-09-08T14:36:04;15.43;;;5.13;;
14474;SDS011;7323;50.848;4.334;2023-09-08T14:38:31;10.48;;;5.70;;
14474;SDS011;7323;50.848;4.334;2023-09-08T14:40:57;16.90;;;5.97;;
14474;SDS011;7323;50.848;4.334;2023-09-08T14:43:26;9.75;;;4.38;;
14474;SDS011;7323;50.848;4.334;2023-09-08T14:45:53;13.63;;;4.60;;
14474;SDS011;7323;50.848;4.334;2023-09-08T14:48:19;15.40;;;5.40;;
14474;SDS011;7323;50.848;4.334;2023-09-08T14:50:46;12.05;;;5.13;;
14474;SDS011;7323;50.848;4.334;2023-09-08T14:53:13;14.45;;;4.68;;
14474;SDS011;7323;50.848;4.334;2023-09-08T14:55:39;10.70;;;5.47;;
14474;SDS011;7323;50.848;4.334;2023-09-08T14:58:05;12.65;;;5.22;;
14474;SDS011;7323;50.848;4.334;2023-09-08T15:00:33;17.33;;;4.80;;
14474;SDS011;7323;50.848;4.334;2023-09-08T15:02:58;12.30;;;4.93;;
14474;SDS011;7323;50.848;4.334;2023-09-08T15:05:25;12.32;;;4.82;;
14474;SDS011;7323;50.848;4.334;2023-09-08T15:07:51;11.35;;;4.95;;
14474;SDS011;7323;50.848;4.334;2023-09-08T15:10:17;11.93;;;4.93;;
14474;SDS011;7323;50.848;4.334;2023-09-08T15:12:43;14.88;;;5.07;;
14474;SDS011;7323;50.848;4.334;2023-09-08T15:15:17;14.07;;;5.60;;
14474;SDS011;7323;50.848;4.334;2023-09-08T15:17:54;11.95;;;5.40;;
14474;SDS011;7323;50.848;4.334;2023-09-08T15:20:22;10.18;;;4.72;;
14474;SDS011;7323;50.848;4.334;2023-09-08T15:22:49;15.88;;;5.53;;
14474;SDS011;7323;50.848;4.334;2023-09-08T15:25:14;12.55;;;5.05;;